createdAt,value
2022-08-28T00:00:36.742Z,99.90
2022-08-28T00:03:05.968Z,99.90
2022-08-28T00:05:36.203Z,99.90
2022-08-28T00:08:04.905Z,99.90
2022-08-28T00:10:33.602Z,99.90
2022-08-28T00:13:01.791Z,99.90
2022-08-28T00:15:32.535Z,99.90
2022-08-28T00:18:01.322Z,99.90
2022-08-28T00:20:31.097Z,99.90
2022-08-28T00:23:01.656Z,99.90
2022-08-28T00:25:31.505Z,99.90
2022-08-28T00:28:05.196Z,99.90
2022-08-28T00:30:39.265Z,99.90
2022-08-28T00:33:10.663Z,99.90
2022-08-28T00:35:40.658Z,99.90
2022-08-28T00:38:12.093Z,99.90
2022-08-28T00:40:42.600Z,99.90
2022-08-28T00:43:22.164Z,99.90
2022-08-28T00:45:50.208Z,99.90
2022-08-28T00:48:18.228Z,99.90
2022-08-28T00:51:03.742Z,99.90
2022-08-28T00:53:33.324Z,99.90
2022-08-28T00:56:06.994Z,99.90
2022-08-28T00:58:42.732Z,99.90
2022-08-28T01:01:11.040Z,99.90
2022-08-28T01:03:39.383Z,99.90
2022-08-28T01:06:08.672Z,99.90
2022-08-28T01:08:41.488Z,99.90
2022-08-28T01:11:10.874Z,99.90
2022-08-28T01:13:40.679Z,99.90
2022-08-28T01:16:09.995Z,99.90
2022-08-28T01:18:39.362Z,99.90
2022-08-28T01:21:20.275Z,99.90
2022-08-28T01:23:56.898Z,99.90
2022-08-28T01:26:25.967Z,99.90
2022-08-28T01:28:53.984Z,99.90
2022-08-28T01:31:22.620Z,99.90
2022-08-28T01:33:50.649Z,99.90
2022-08-28T01:36:20.953Z,99.90
2022-08-28T01:38:54.724Z,99.90
2022-08-28T01:41:22.741Z,99.90
2022-08-28T01:43:50.729Z,99.90
2022-08-28T01:46:18.925Z,99.90
2022-08-28T01:48:47.075Z,99.90
2022-08-28T01:51:15.455Z,99.90
2022-08-28T01:53:45.109Z,99.90
2022-08-28T01:56:16.957Z,99.90
2022-08-28T01:58:45.208Z,99.90
2022-08-28T02:01:15.299Z,99.90
2022-08-28T02:03:44.128Z,99.90
2022-08-28T02:06:13.177Z,99.90
2022-08-28T02:08:41.179Z,99.90
2022-08-28T02:11:10.115Z,99.90
2022-08-28T02:13:40.195Z,99.90
2022-08-28T02:16:10.863Z,99.90
2022-08-28T02:18:39.375Z,99.90
2022-08-28T02:21:08.380Z,99.90
2022-08-28T02:23:38.084Z,99.90
2022-08-28T02:26:06.240Z,99.90
2022-08-28T02:28:34.262Z,99.90
2022-08-28T02:31:03.725Z,99.90
2022-08-28T02:33:31.767Z,99.90
2022-08-28T02:35:59.809Z,99.90
2022-08-28T02:38:27.845Z,99.90
2022-08-28T02:40:59.058Z,99.90
2022-08-28T02:43:27.503Z,99.90
2022-08-28T02:45:55.583Z,99.90
2022-08-28T02:48:25.139Z,99.90
2022-08-28T02:50:59.040Z,99.90
2022-08-28T02:53:27.261Z,99.90
2022-08-28T02:55:55.256Z,99.90
2022-08-28T02:58:23.967Z,99.90
2022-08-28T03:00:51.981Z,99.90
2022-08-28T03:03:20.328Z,99.90
2022-08-28T03:05:49.842Z,99.90
2022-08-28T03:08:17.888Z,99.90
2022-08-28T03:10:45.909Z,99.90
2022-08-28T03:13:26.610Z,99.90
2022-08-28T03:15:56.096Z,99.90
2022-08-28T03:18:25.332Z,99.90
2022-08-28T03:20:55.588Z,99.90
2022-08-28T03:23:30.151Z,99.90
2022-08-28T03:26:00.181Z,99.90
2022-08-28T03:28:30.429Z,99.90
2022-08-28T03:30:58.973Z,99.90
2022-08-28T03:33:28.155Z,99.90
2022-08-28T03:35:57.873Z,99.90
2022-08-28T03:38:26.092Z,99.90
2022-08-28T03:40:54.554Z,99.90
2022-08-28T03:43:24.896Z,99.90
2022-08-28T03:45:55.090Z,99.90
2022-08-28T03:48:24.477Z,99.90
2022-08-28T03:50:53.341Z,99.90
2022-08-28T03:53:23.914Z,99.90
2022-08-28T03:55:52.320Z,99.90
2022-08-28T03:58:20.722Z,99.90
2022-08-28T04:00:49.906Z,99.90
2022-08-28T04:03:18.402Z,99.90
2022-08-28T04:05:48.164Z,99.90
2022-08-28T04:08:18.303Z,99.90
2022-08-28T04:10:48.681Z,99.90
2022-08-28T04:13:18.706Z,99.90
2022-08-28T04:15:47.426Z,99.90
2022-08-28T04:18:15.841Z,99.90
2022-08-28T04:20:46.500Z,99.90
2022-08-28T04:23:14.615Z,99.90
2022-08-28T04:25:42.637Z,99.90
2022-08-28T04:28:12.127Z,99.90
2022-08-28T04:30:42.111Z,99.90
2022-08-28T04:33:10.555Z,99.90
2022-08-28T04:35:38.608Z,99.90
2022-08-28T04:38:06.685Z,99.90
2022-08-28T04:40:34.908Z,99.90
2022-08-28T04:43:02.948Z,99.90
2022-08-28T04:45:32.382Z,99.90
2022-08-28T04:48:00.610Z,99.90
2022-08-28T04:50:33.508Z,99.90
2022-08-28T04:53:01.577Z,99.90
2022-08-28T04:55:53.685Z,99.90
2022-08-28T04:58:19.317Z,99.90
2022-08-28T05:00:55.258Z,99.90
2022-08-28T05:03:23.999Z,99.90
2022-08-28T05:05:53.519Z,99.90
2022-08-28T05:08:23.922Z,99.90
2022-08-28T05:10:52.253Z,99.90
2022-08-28T05:13:20.681Z,99.90
2022-08-28T05:15:50.828Z,99.90
2022-08-28T05:18:23.913Z,99.90
2022-08-28T05:20:51.962Z,99.90
2022-08-28T05:23:19.913Z,99.90
2022-08-28T05:25:50.567Z,99.90
2022-08-28T05:28:19.108Z,99.90
2022-08-28T05:30:47.633Z,99.90
2022-08-28T05:33:17.020Z,99.90
2022-08-28T05:35:47.258Z,99.90
2022-08-28T05:38:16.975Z,99.90
2022-08-28T05:40:46.682Z,99.90
2022-08-28T05:43:15.924Z,99.90
2022-08-28T05:45:44.841Z,99.90
2022-08-28T05:48:13.240Z,99.90
2022-08-28T05:50:44.505Z,99.90
2022-08-28T05:53:18.154Z,99.90
2022-08-28T05:55:46.616Z,99.90
2022-08-28T05:58:34.691Z,99.90
2022-08-28T06:01:12.380Z,99.90
2022-08-28T06:03:42.523Z,99.90
2022-08-28T06:06:12.676Z,99.90
2022-08-28T06:08:58.607Z,99.90
2022-08-28T06:11:30.543Z,99.90
2022-08-28T06:14:01.499Z,99.90
2022-08-28T06:16:30.505Z,99.90
2022-08-28T06:18:59.203Z,99.90
2022-08-28T06:21:27.188Z,99.90
2022-08-28T06:23:56.646Z,99.90
2022-08-28T06:26:24.810Z,99.90
2022-08-28T06:28:53.652Z,99.90
2022-08-28T06:31:23.496Z,99.90
2022-08-28T06:33:54.081Z,99.90
2022-08-28T06:36:22.841Z,99.90
2022-08-28T06:38:51.373Z,99.90
2022-08-28T06:41:20.751Z,99.90
2022-08-28T06:43:49.262Z,99.90
2022-08-28T06:46:18.081Z,99.90
2022-08-28T06:48:46.125Z,99.90
2022-08-28T06:51:15.057Z,99.90
2022-08-28T06:53:45.109Z,99.90
2022-08-28T06:56:25.623Z,99.90
2022-08-28T06:58:58.998Z,99.90
2022-08-28T07:01:29.570Z,99.90
2022-08-28T07:04:00.467Z,99.90
2022-08-28T07:06:31.956Z,99.90
2022-08-28T07:08:59.937Z,99.90
2022-08-28T07:11:30.108Z,99.90
2022-08-28T07:14:00.777Z,99.90
2022-08-28T07:16:31.224Z,99.90
2022-08-28T07:19:00.121Z,99.90
2022-08-28T07:21:28.220Z,99.90
2022-08-28T07:23:56.360Z,99.90
2022-08-28T07:26:27.870Z,99.90
2022-08-28T07:29:09.346Z,99.90
2022-08-28T07:31:41.348Z,99.90
2022-08-28T07:34:10.567Z,99.90
2022-08-28T07:36:39.604Z,99.90
2022-08-28T07:39:08.418Z,99.90
2022-08-28T07:41:39.324Z,99.90
2022-08-28T07:44:25.652Z,99.90
2022-08-28T07:46:57.074Z,99.90
2022-08-28T07:49:25.836Z,99.70
2022-08-28T07:51:54.584Z,99.50
2022-08-28T07:54:23.152Z,99.10
2022-08-28T07:56:51.518Z,98.60
2022-08-28T07:59:20.322Z,98.20
2022-08-28T08:01:51.438Z,98.60
2022-08-28T08:04:23.414Z,98.30
2022-08-28T08:06:57.576Z,97.90
2022-08-28T08:09:27.355Z,98.20
2022-08-28T08:11:57.499Z,98.10
2022-08-28T08:14:26.121Z,98.30
2022-08-28T08:16:54.174Z,98.60
2022-08-28T08:19:23.619Z,98.50
2022-08-28T08:21:54.989Z,98.60
2022-08-28T08:24:26.389Z,98.50
2022-08-28T08:27:00.256Z,98.40
2022-08-28T08:29:31.407Z,98.10
2022-08-28T08:32:05.105Z,98.10
2022-08-28T08:34:38.574Z,98.20
2022-08-28T08:37:07.003Z,97.80
2022-08-28T08:39:35.951Z,97.00
2022-08-28T08:42:07.332Z,96.80
2022-08-28T08:44:40.375Z,96.70
2022-08-28T08:47:14.741Z,97.10
2022-08-28T08:49:51.324Z,96.90
2022-08-28T08:52:37.818Z,96.20
2022-08-28T08:55:25.971Z,95.50
2022-08-28T08:58:00.477Z,95.20
2022-08-28T09:00:29.830Z,94.40
2022-08-28T09:03:04.167Z,94.90
2022-08-28T09:05:46.746Z,94.40
2022-08-28T09:08:25.128Z,93.70
2022-08-28T09:11:00.079Z,93.30
2022-08-28T09:13:35.068Z,92.60
2022-08-28T09:16:06.405Z,92.00
2022-08-28T09:18:35.656Z,92.40
2022-08-28T09:21:07.891Z,92.00
2022-08-28T09:23:36.035Z,92.00
2022-08-28T09:26:09.252Z,92.00
2022-08-28T09:28:44.645Z,90.60
2022-08-28T09:31:19.531Z,90.00
2022-08-28T09:33:51.287Z,87.80
2022-08-28T09:36:32.654Z,87.70
2022-08-28T09:39:07.425Z,81.20
2022-08-28T09:42:04.637Z,77.20
2022-08-28T09:44:32.811Z,74.60
2022-08-28T09:47:00.964Z,71.00
2022-08-28T09:49:30.976Z,70.50
2022-08-28T09:52:19.752Z,69.90
2022-08-28T09:54:51.272Z,70.40
2022-08-28T09:57:19.302Z,69.60
2022-08-28T09:59:47.305Z,67.40
2022-08-28T10:02:25.837Z,65.70
2022-08-28T10:05:02.561Z,65.30
2022-08-28T10:07:40.103Z,63.50
2022-08-28T10:10:18.816Z,63.80
2022-08-28T10:13:01.785Z,65.50
2022-08-28T10:15:43.062Z,62.70
2022-08-28T10:18:27.863Z,59.70
2022-08-28T10:21:05.041Z,59.10
2022-08-28T10:23:46.035Z,62.40
2022-08-28T10:26:27.523Z,65.70
2022-08-28T10:29:07.911Z,66.10
2022-08-28T10:31:44.002Z,66.60
2022-08-28T10:34:33.153Z,69.50
2022-08-28T10:37:10.116Z,71.10
2022-08-28T10:39:50.418Z,71.00
2022-08-28T10:42:30.223Z,73.70
2022-08-28T10:45:08.759Z,75.50
2022-08-28T10:47:41.895Z,77.00
2022-08-28T10:50:16.552Z,76.80
2022-08-28T10:52:49.979Z,77.00
2022-08-28T10:55:25.154Z,77.40
2022-08-28T10:57:58.977Z,78.10
2022-08-28T11:00:28.870Z,78.40
2022-08-28T11:03:00.322Z,78.70
2022-08-28T11:05:31.729Z,78.30
2022-08-28T11:08:04.131Z,78.20
2022-08-28T11:10:48.412Z,77.60
2022-08-28T11:13:41.507Z,76.30
2022-08-28T11:16:18.071Z,76.10
2022-08-28T11:19:27.459Z,76.00
2022-08-28T11:22:01.403Z,77.00
2022-08-28T11:24:43.750Z,78.40
2022-08-28T11:27:22.478Z,78.80
2022-08-28T11:30:35.574Z,79.80
2022-08-28T11:33:07.804Z,78.80
2022-08-28T11:35:52.783Z,78.30
2022-08-28T11:39:02.830Z,78.20
2022-08-28T11:41:32.824Z,78.90
2022-08-28T11:44:28.369Z,80.20
2022-08-28T11:47:16.816Z,80.80
2022-08-28T11:49:46.426Z,80.50
2022-08-28T11:52:36.488Z,81.40
2022-08-28T11:55:20.002Z,81.80
2022-08-28T12:00:48.798Z,80.00
2022-08-28T12:03:25.141Z,80.20
2022-08-28T12:05:56.340Z,80.10
2022-08-28T12:08:57.770Z,80.00
2022-08-28T12:11:57.838Z,79.10
2022-08-28T12:15:07.823Z,78.30
2022-08-28T12:17:49.653Z,78.10
2022-08-28T12:20:26.453Z,77.90
2022-08-28T12:22:58.319Z,77.50
2022-08-28T12:25:32.094Z,78.10
2022-08-28T12:28:04.988Z,78.80
2022-08-28T12:30:37.227Z,77.90
2022-08-28T12:33:19.890Z,78.80
2022-08-28T12:35:47.897Z,79.40
2022-08-28T12:38:21.385Z,79.70
2022-08-28T12:40:52.970Z,80.60
2022-08-28T12:43:40.891Z,80.90
2022-08-28T12:46:19.351Z,81.30
2022-08-28T12:48:51.834Z,82.00
2022-08-28T12:51:23.162Z,83.10
2022-08-28T12:53:54.360Z,83.50
2022-08-28T12:56:24.906Z,84.30
2022-08-28T12:58:53.146Z,85.20
2022-08-28T13:01:29.034Z,84.10
2022-08-28T13:04:02.406Z,84.50
2022-08-28T13:06:32.034Z,84.70
2022-08-28T13:09:03.355Z,84.60
2022-08-28T13:11:35.811Z,84.80
2022-08-28T13:14:05.212Z,85.90
2022-08-28T13:16:40.476Z,84.90
2022-08-28T13:19:22.508Z,84.60
2022-08-28T13:21:58.833Z,83.30
2022-08-28T13:24:45.918Z,84.60
2022-08-28T13:27:25.263Z,88.20
2022-08-28T13:30:02.641Z,92.00
2022-08-28T13:32:32.717Z,99.90
2022-08-28T13:35:13.579Z,99.90
2022-08-28T13:37:44.949Z,99.90
2022-08-28T13:40:36.884Z,99.90
2022-08-28T13:43:07.477Z,99.90
2022-08-28T13:45:43.128Z,99.90
2022-08-28T13:48:15.252Z,99.90
2022-08-28T13:50:48.307Z,99.90
2022-08-28T13:53:18.282Z,99.90
2022-08-28T13:55:47.221Z,99.90
2022-08-28T13:58:15.842Z,99.90
2022-08-28T14:00:47.077Z,99.90
2022-08-28T14:03:32.900Z,99.90
2022-08-28T14:06:02.593Z,99.90
2022-08-28T14:08:30.723Z,99.90
2022-08-28T14:10:58.764Z,99.90
2022-08-28T14:13:27.885Z,99.90
2022-08-28T14:15:56.499Z,99.90
2022-08-28T14:18:24.865Z,99.90
2022-08-28T14:20:53.017Z,99.90
2022-08-28T14:23:23.048Z,99.90
2022-08-28T14:25:51.053Z,99.90
2022-08-28T14:28:19.165Z,99.90
2022-08-28T14:30:49.169Z,99.90
2022-08-28T14:33:20.809Z,99.90
2022-08-28T14:35:49.932Z,99.90
2022-08-28T14:38:18.184Z,99.90
2022-08-28T14:40:47.512Z,99.90
2022-08-28T14:43:15.868Z,99.90
2022-08-28T14:45:45.949Z,99.90
2022-08-28T14:48:15.665Z,99.90
2022-08-28T14:50:46.095Z,99.90
2022-08-28T14:53:15.807Z,99.90
2022-08-28T14:55:45.777Z,99.90
2022-08-28T14:58:15.636Z,99.90
2022-08-28T15:00:46.140Z,99.90
2022-08-28T15:03:14.937Z,99.90
2022-08-28T15:05:43.586Z,99.90
2022-08-28T15:08:14.106Z,99.90
2022-08-28T15:10:43.243Z,99.90
2022-08-28T15:13:12.734Z,99.90
2022-08-28T15:15:42.629Z,99.90
2022-08-28T15:18:11.956Z,99.90
2022-08-28T15:20:40.882Z,99.90
2022-08-28T15:23:10.171Z,99.90
2022-08-28T15:25:38.513Z,99.90
2022-08-28T15:28:07.549Z,99.90
2022-08-28T15:30:36.780Z,99.90
2022-08-28T15:33:06.727Z,99.90
2022-08-28T15:35:37.093Z,99.90
2022-08-28T15:38:05.421Z,99.90
2022-08-28T15:40:51.744Z,99.90
2022-08-28T15:43:19.825Z,99.90
2022-08-28T15:45:47.930Z,99.90
2022-08-28T15:48:17.334Z,99.90
2022-08-28T15:50:45.387Z,99.90
2022-08-28T15:53:13.455Z,99.90
2022-08-28T15:55:41.642Z,99.90
2022-08-28T15:58:14.367Z,99.90
2022-08-28T16:00:43.164Z,99.90
2022-08-28T16:03:11.289Z,99.90
2022-08-28T16:05:41.142Z,99.90
2022-08-28T16:08:10.712Z,99.90
2022-08-28T16:10:38.760Z,99.90
2022-08-28T16:13:06.962Z,99.90
2022-08-28T16:15:35.149Z,99.90
2022-08-28T16:18:05.402Z,99.90
2022-08-28T16:20:34.483Z,99.90
2022-08-28T16:23:04.003Z,99.90
2022-08-28T16:25:32.277Z,99.90
2022-08-28T16:28:02.329Z,99.90
2022-08-28T16:30:30.395Z,99.90
2022-08-28T16:32:58.999Z,99.90
2022-08-28T16:35:26.995Z,99.90
2022-08-28T16:37:55.010Z,99.90
2022-08-28T16:40:24.852Z,99.90
2022-08-28T16:42:55.473Z,99.90
2022-08-28T16:45:23.800Z,99.90
2022-08-28T16:47:54.238Z,99.90
2022-08-28T16:50:22.701Z,99.90
2022-08-28T16:52:50.739Z,99.90
2022-08-28T16:55:18.869Z,99.90
2022-08-28T16:57:49.304Z,99.90
2022-08-28T17:00:17.583Z,99.90
2022-08-28T17:02:46.550Z,99.90
2022-08-28T17:05:15.892Z,99.90
2022-08-28T17:07:44.265Z,99.90
2022-08-28T17:10:15.279Z,99.90
2022-08-28T17:12:45.362Z,99.90
2022-08-28T17:15:15.298Z,99.90
2022-08-28T17:17:43.805Z,99.90
2022-08-28T17:20:34.536Z,99.90
2022-08-28T17:23:01.811Z,99.90
2022-08-28T17:25:31.530Z,99.90
2022-08-28T17:28:00.522Z,99.90
2022-08-28T17:30:30.416Z,99.90
2022-08-28T17:32:58.467Z,99.90
2022-08-28T17:35:26.586Z,99.90
2022-08-28T17:37:55.631Z,99.90
2022-08-28T17:40:23.792Z,99.90
2022-08-28T17:42:53.768Z,99.90
2022-08-28T17:45:21.778Z,99.90
2022-08-28T17:47:52.672Z,99.90
2022-08-28T17:50:21.129Z,99.90
2022-08-28T17:52:49.455Z,99.90
2022-08-28T17:55:19.797Z,99.90
2022-08-28T17:57:47.813Z,99.90
2022-08-28T18:00:17.072Z,99.90
2022-08-28T18:02:46.280Z,99.90
2022-08-28T18:05:15.782Z,99.90
2022-08-28T18:07:43.781Z,99.90
2022-08-28T18:10:12.495Z,99.90
2022-08-28T18:12:40.794Z,99.90
2022-08-28T18:15:12.204Z,99.90
2022-08-28T18:17:42.200Z,99.90
2022-08-28T18:20:12.486Z,99.90
2022-08-28T18:22:41.851Z,99.90
2022-08-28T18:25:31.287Z,99.90
2022-08-28T18:27:59.300Z,99.90
2022-08-28T18:30:28.119Z,99.90
2022-08-28T18:32:57.312Z,99.90
2022-08-28T18:35:31.691Z,99.90
2022-08-28T18:38:01.843Z,99.90
2022-08-28T18:40:30.464Z,99.90
2022-08-28T18:42:58.511Z,99.90
2022-08-28T18:45:27.184Z,99.90
2022-08-28T18:47:55.371Z,99.90
2022-08-28T18:50:23.559Z,99.90
2022-08-28T18:52:53.906Z,99.90
2022-08-28T18:55:25.842Z,99.90
2022-08-28T18:57:54.052Z,99.90
2022-08-28T19:00:26.779Z,99.90
2022-08-28T19:02:55.395Z,99.90
2022-08-28T19:05:23.994Z,99.90
2022-08-28T19:07:52.784Z,99.90
2022-08-28T19:10:33.401Z,99.90
2022-08-28T19:13:04.195Z,99.90
2022-08-28T19:15:33.489Z,99.90
2022-08-28T19:18:02.112Z,99.90
2022-08-28T19:20:31.066Z,99.90
2022-08-28T19:22:59.692Z,99.90
2022-08-28T19:25:31.438Z,99.90
2022-08-28T19:27:59.745Z,99.90
2022-08-28T19:30:33.017Z,99.90
2022-08-28T19:33:02.871Z,99.90
2022-08-28T19:35:30.953Z,99.90
2022-08-28T19:37:58.942Z,99.90
2022-08-28T19:40:27.458Z,99.90
2022-08-28T19:42:55.674Z,99.90
2022-08-28T19:45:23.947Z,99.90
2022-08-28T19:47:53.706Z,99.90
2022-08-28T19:50:21.811Z,99.90
2022-08-28T19:52:50.940Z,99.90
2022-08-28T19:55:21.112Z,99.90
2022-08-28T19:57:49.374Z,99.90
2022-08-28T20:00:19.405Z,99.90
2022-08-28T20:02:50.795Z,99.90
2022-08-28T20:05:21.190Z,99.90
2022-08-28T20:07:52.160Z,99.90
2022-08-28T20:10:21.395Z,99.90
2022-08-28T20:12:49.602Z,99.90
2022-08-28T20:15:18.832Z,99.90
2022-08-28T20:17:49.641Z,99.90
2022-08-28T20:20:20.589Z,99.90
2022-08-28T20:22:48.982Z,99.90
2022-08-28T20:25:22.298Z,99.90
2022-08-28T20:27:53.096Z,99.90
2022-08-28T20:30:21.220Z,99.90
2022-08-28T20:32:49.236Z,99.90
2022-08-28T20:35:17.499Z,99.90
2022-08-28T20:37:51.445Z,99.90
2022-08-28T20:40:21.802Z,99.90
2022-08-28T20:42:49.879Z,99.90
2022-08-28T20:45:19.679Z,99.90
2022-08-28T20:47:50.184Z,99.90
2022-08-28T20:50:18.441Z,99.90
2022-08-28T20:52:46.487Z,99.90
2022-08-28T20:55:15.919Z,99.90
2022-08-28T20:57:43.933Z,99.90
2022-08-28T21:00:13.937Z,99.90
2022-08-28T21:02:41.972Z,99.90
2022-08-28T21:05:10.776Z,99.90
2022-08-28T21:07:38.866Z,99.90
2022-08-28T21:10:08.175Z,99.90
2022-08-28T21:12:39.114Z,99.90
2022-08-28T21:15:09.763Z,99.90
2022-08-28T21:17:38.004Z,99.90
2022-08-28T21:20:10.307Z,99.90
2022-08-28T21:22:39.260Z,99.90
2022-08-28T21:25:10.461Z,99.90
2022-08-28T21:27:40.509Z,99.90
2022-08-28T21:30:10.173Z,99.90
2022-08-28T21:32:38.440Z,99.90
2022-08-28T21:35:09.430Z,99.90
2022-08-28T21:37:39.606Z,99.90
2022-08-28T21:40:10.104Z,99.90
2022-08-28T21:42:39.596Z,99.90
2022-08-28T21:45:11.840Z,99.90
2022-08-28T21:47:41.113Z,99.90
2022-08-28T21:50:10.707Z,99.90
2022-08-28T21:52:39.067Z,99.90
2022-08-28T21:55:09.934Z,99.90
2022-08-28T21:57:39.623Z,99.90
2022-08-28T22:00:09.995Z,99.90
2022-08-28T22:02:38.096Z,99.90
2022-08-28T22:05:06.568Z,99.90
2022-08-28T22:07:34.674Z,99.90
2022-08-28T22:10:02.702Z,99.90
2022-08-28T22:12:31.064Z,99.90
2022-08-28T22:15:02.614Z,99.90
2022-08-28T22:17:30.669Z,99.90
2022-08-28T22:19:58.667Z,99.90
2022-08-28T22:22:44.230Z,99.90
2022-08-28T22:25:12.282Z,99.90
2022-08-28T22:27:40.313Z,99.90
2022-08-28T22:30:10.941Z,99.90
2022-08-28T22:32:39.202Z,99.90
2022-08-28T22:35:08.840Z,99.90
2022-08-28T22:37:37.768Z,99.90
2022-08-28T22:40:09.539Z,99.90
2022-08-28T22:42:41.890Z,99.90
2022-08-28T22:45:11.748Z,99.90
2022-08-28T22:47:40.552Z,99.90
2022-08-28T22:50:09.382Z,99.90
2022-08-28T22:52:37.445Z,99.90
2022-08-28T22:55:08.784Z,99.90
2022-08-28T22:57:36.979Z,99.90
2022-08-28T23:00:07.506Z,99.90
2022-08-28T23:02:37.030Z,99.90
2022-08-28T23:05:05.872Z,99.90
2022-08-28T23:07:33.877Z,99.90
2022-08-28T23:10:02.014Z,99.90
2022-08-28T23:12:30.103Z,99.90
2022-08-28T23:14:58.100Z,99.90
2022-08-28T23:17:26.150Z,99.90
2022-08-28T23:19:55.615Z,99.90
2022-08-28T23:22:23.626Z,99.90
2022-08-28T23:24:52.411Z,99.90
2022-08-28T23:27:35.954Z,99.90
2022-08-28T23:30:07.207Z,99.90
2022-08-28T23:32:35.325Z,99.90
2022-08-28T23:35:07.263Z,99.90
2022-08-28T23:37:36.456Z,99.90
2022-08-28T23:40:05.900Z,99.90
2022-08-28T23:42:33.967Z,99.90
2022-08-28T23:45:01.949Z,99.90
2022-08-28T23:47:33.179Z,99.90
2022-08-28T23:50:01.228Z,99.90
2022-08-28T23:52:30.637Z,99.90
2022-08-28T23:54:59.984Z,99.90
2022-08-28T23:57:28.808Z,99.90
2022-08-28T23:59:57.191Z,99.90
